createdAt,value
2023-04-27T00:01:15.151Z,4.00
2023-04-27T00:03:42.459Z,3.72
2023-04-27T00:06:12.390Z,4.57
2023-04-27T00:08:49.746Z,6.43
2023-04-27T00:11:16.354Z,6.43
2023-04-27T00:13:42.922Z,5.78
2023-04-27T00:16:09.531Z,6.93
2023-04-27T00:18:58.071Z,4.72
2023-04-27T00:22:19.426Z,6.30
2023-04-27T00:24:48.959Z,3.42
2023-04-27T00:27:15.530Z,4.72
2023-04-27T00:29:42.945Z,5.53
2023-04-27T00:32:12.543Z,6.37
2023-04-27T00:34:39.207Z,2.92
2023-04-27T00:40:08.720Z,3.50
2023-04-27T00:42:36.055Z,4.40
2023-04-27T00:45:03.503Z,3.10
2023-04-27T00:47:45.898Z,4.43
2023-04-27T00:50:38.741Z,5.10
2023-04-27T00:53:21.669Z,3.47
2023-04-27T00:55:48.531Z,4.93
2023-04-27T00:58:15.566Z,5.20
2023-04-27T01:00:42.142Z,4.12
2023-04-27T01:03:08.908Z,4.35
2023-04-27T01:05:37.306Z,3.75
2023-04-27T01:08:04.580Z,4.32
2023-04-27T01:10:31.298Z,4.82
2023-04-27T01:12:57.888Z,4.10
2023-04-27T01:15:24.432Z,4.78
2023-04-27T01:21:21.441Z,8.02
2023-04-27T01:23:47.990Z,5.55
2023-04-27T01:26:16.419Z,4.45
2023-04-27T01:28:43.440Z,4.72
2023-04-27T01:31:11.596Z,5.40
2023-04-27T01:33:38.933Z,3.72
2023-04-27T01:38:59.778Z,4.03
2023-04-27T01:41:26.325Z,4.55
2023-04-27T01:43:52.886Z,6.62
2023-04-27T01:49:49.303Z,5.37
2023-04-27T01:52:34.267Z,4.72
2023-04-27T01:55:01.030Z,5.12
2023-04-27T01:57:27.628Z,3.80
2023-04-27T01:59:54.257Z,6.70
2023-04-27T02:02:21.059Z,5.28
2023-04-27T02:04:47.818Z,5.30
2023-04-27T02:07:14.486Z,5.78
2023-04-27T02:09:41.044Z,3.58
2023-04-27T02:12:07.802Z,4.32
2023-04-27T02:14:34.390Z,4.35
2023-04-27T02:17:01.028Z,4.85
2023-04-27T02:19:27.666Z,5.37
2023-04-27T02:22:16.436Z,4.72
2023-04-27T02:25:15.809Z,8.25
2023-04-27T02:27:42.590Z,4.47
2023-04-27T02:30:11.810Z,7.28
2023-04-27T02:32:38.957Z,6.78
2023-04-27T02:35:05.923Z,6.65
2023-04-27T02:37:32.467Z,6.53
2023-04-27T02:39:59.072Z,5.18
2023-04-27T02:42:25.885Z,5.47
2023-04-27T02:44:52.543Z,5.45
2023-04-27T02:47:19.101Z,4.30
2023-04-27T02:49:45.827Z,4.50
2023-04-27T02:52:12.375Z,5.05
2023-04-27T02:54:39.348Z,5.80
2023-04-27T02:57:05.928Z,5.82
2023-04-27T02:59:33.042Z,4.93
2023-04-27T03:01:59.674Z,4.12
2023-04-27T03:04:26.322Z,6.43
2023-04-27T03:06:53.020Z,5.57
2023-04-27T03:09:19.754Z,5.30
2023-04-27T03:12:02.831Z,4.20
2023-04-27T03:14:29.478Z,5.45
2023-04-27T03:16:57.424Z,4.45
2023-04-27T03:19:24.092Z,6.40
2023-04-27T03:22:08.922Z,7.15
2023-04-27T03:25:00.393Z,6.10
2023-04-27T03:27:43.482Z,6.12
2023-04-27T03:30:10.918Z,6.97
2023-04-27T03:32:37.467Z,4.80
2023-04-27T03:35:04.684Z,5.18
2023-04-27T03:37:31.361Z,5.93
2023-04-27T03:39:57.948Z,7.25
2023-04-27T03:42:24.608Z,4.37
2023-04-27T03:44:52.594Z,6.43
2023-04-27T03:47:19.128Z,5.75
2023-04-27T03:49:46.260Z,6.72
2023-04-27T03:52:12.811Z,5.97
2023-04-27T03:54:39.382Z,4.90
2023-04-27T03:57:05.965Z,5.32
2023-04-27T03:59:32.609Z,7.70
2023-04-27T04:02:01.188Z,6.62
2023-04-27T04:04:28.294Z,5.70
2023-04-27T04:06:54.962Z,6.37
2023-04-27T04:09:23.718Z,9.63
2023-04-27T04:11:52.467Z,4.62
2023-04-27T04:14:19.025Z,6.47
2023-04-27T04:16:45.738Z,4.43
2023-04-27T04:19:12.444Z,4.40
2023-04-27T04:21:39.129Z,7.32
2023-04-27T04:24:06.178Z,4.82
2023-04-27T04:26:33.598Z,5.10
2023-04-27T04:29:00.166Z,3.85
2023-04-27T04:31:27.688Z,5.85
2023-04-27T04:33:54.288Z,5.18
2023-04-27T04:37:10.700Z,7.03
2023-04-27T04:40:08.904Z,7.22
2023-04-27T04:42:38.866Z,6.03
2023-04-27T04:45:07.116Z,6.97
2023-04-27T04:47:34.358Z,5.30
2023-04-27T04:50:01.596Z,7.12
2023-04-27T04:52:28.329Z,8.95
2023-04-27T04:54:54.885Z,6.57
2023-04-27T04:57:22.209Z,7.40
2023-04-27T04:59:48.883Z,8.10
2023-04-27T05:02:15.503Z,6.00
2023-04-27T05:04:42.207Z,8.43
2023-04-27T05:07:08.766Z,7.50
2023-04-27T05:09:35.375Z,10.52
2023-04-27T05:12:02.226Z,8.52
2023-04-27T05:14:28.889Z,7.70
2023-04-27T05:16:55.833Z,6.93
2023-04-27T05:19:22.590Z,8.88
2023-04-27T05:21:49.479Z,8.77
2023-04-27T05:24:16.114Z,7.90
2023-04-27T05:26:43.512Z,6.95
2023-04-27T05:29:10.074Z,9.73
2023-04-27T05:31:36.654Z,8.63
2023-04-27T05:34:03.362Z,5.47
2023-04-27T05:36:29.964Z,6.97
2023-04-27T05:38:56.509Z,7.22
2023-04-27T05:41:23.833Z,5.78
2023-04-27T05:43:51.343Z,6.62
2023-04-27T05:46:17.914Z,9.48
2023-04-27T05:48:44.548Z,6.55
2023-04-27T05:51:11.173Z,8.45
2023-04-27T05:53:38.370Z,7.30
2023-04-27T05:56:06.976Z,8.80
2023-04-27T05:58:33.874Z,5.93
2023-04-27T06:01:01.643Z,10.30
2023-04-27T06:03:29.764Z,6.28
2023-04-27T06:05:59.562Z,9.48
2023-04-27T06:08:27.427Z,5.37
2023-04-27T06:10:54.444Z,7.22
2023-04-27T06:13:21.689Z,8.70
2023-04-27T06:15:48.343Z,8.10
2023-04-27T06:18:30.130Z,6.70
2023-04-27T06:21:01.619Z,8.32
2023-04-27T06:23:28.516Z,6.62
2023-04-27T06:25:58.942Z,6.40
2023-04-27T06:28:35.717Z,8.73
2023-04-27T06:31:02.347Z,8.75
2023-04-27T06:33:28.974Z,8.27
2023-04-27T06:36:23.595Z,7.00
2023-04-27T06:39:15.425Z,7.43
2023-04-27T06:41:51.459Z,5.82
2023-04-27T06:44:18.142Z,8.30
2023-04-27T06:46:44.684Z,5.70
2023-04-27T06:49:11.617Z,5.40
2023-04-27T06:51:38.419Z,3.90
2023-04-27T06:54:05.233Z,5.68
2023-04-27T06:56:32.198Z,3.95
2023-04-27T06:58:58.882Z,5.90
2023-04-27T07:01:25.544Z,8.77
2023-04-27T07:03:52.320Z,4.65
2023-04-27T07:06:19.048Z,5.37
2023-04-27T07:08:45.617Z,6.57
2023-04-27T07:11:13.597Z,5.28
2023-04-27T07:13:40.184Z,4.07
2023-04-27T07:16:07.227Z,7.70
2023-04-27T07:18:33.849Z,6.20
2023-04-27T07:21:00.385Z,18.42
2023-04-27T07:23:27.191Z,3.87
2023-04-27T07:25:54.264Z,3.28
2023-04-27T07:28:20.982Z,7.68
2023-04-27T07:30:47.886Z,4.28
2023-04-27T07:33:14.527Z,4.32
2023-04-27T07:35:41.279Z,6.82
2023-04-27T07:38:08.477Z,3.65
2023-04-27T07:40:35.199Z,7.22
2023-04-27T07:43:02.932Z,6.28
2023-04-27T07:45:33.495Z,7.37
2023-04-27T07:48:02.221Z,6.72
2023-04-27T07:50:30.235Z,4.68
2023-04-27T07:52:57.935Z,4.87
2023-04-27T07:55:25.556Z,4.22
2023-04-27T07:57:58.325Z,5.87
2023-04-27T08:00:27.854Z,2.72
2023-04-27T08:02:55.108Z,2.53
2023-04-27T08:05:22.370Z,4.70
2023-04-27T08:07:49.348Z,4.45
2023-04-27T08:10:16.565Z,4.60
2023-04-27T08:12:43.144Z,2.92
2023-04-27T08:15:11.106Z,4.20
2023-04-27T08:17:40.676Z,4.80
2023-04-27T08:20:09.738Z,6.57
2023-04-27T08:22:36.313Z,4.55
2023-04-27T08:27:40.154Z,4.25
2023-04-27T08:30:07.839Z,5.25
2023-04-27T08:32:34.569Z,3.72
2023-04-27T08:35:01.266Z,5.20
2023-04-27T08:37:27.862Z,4.78
2023-04-27T08:40:25.486Z,6.25
2023-04-27T08:46:15.953Z,3.92
2023-04-27T08:48:42.546Z,2.72
2023-04-27T08:51:14.720Z,2.45
2023-04-27T08:53:49.238Z,4.45
2023-04-27T08:56:16.006Z,3.80
2023-04-27T08:58:42.625Z,4.97
2023-04-27T09:01:09.211Z,5.18
2023-04-27T09:03:38.506Z,3.75
2023-04-27T09:06:06.302Z,3.53
2023-04-27T09:08:44.268Z,3.78
2023-04-27T09:11:10.992Z,3.08
2023-04-27T09:13:39.709Z,4.15
2023-04-27T09:16:06.525Z,7.53
2023-04-27T09:18:37.972Z,4.62
2023-04-27T09:21:04.692Z,5.35
2023-04-27T09:23:40.711Z,4.65
2023-04-27T09:26:08.261Z,2.87
2023-04-27T09:28:39.067Z,5.60
2023-04-27T09:31:09.081Z,3.25
2023-04-27T09:33:36.154Z,3.30
2023-04-27T09:36:05.704Z,4.78
2023-04-27T09:38:32.873Z,5.18
2023-04-27T09:41:00.344Z,2.85
2023-04-27T09:43:28.706Z,2.97
2023-04-27T09:45:56.014Z,2.62
2023-04-27T09:48:24.149Z,3.85
2023-04-27T09:50:51.959Z,3.70
2023-04-27T09:53:21.029Z,4.32
2023-04-27T09:55:59.990Z,6.22
2023-04-27T09:58:38.583Z,3.15
2023-04-27T10:01:27.131Z,5.35
2023-04-27T10:04:31.870Z,3.58
2023-04-27T10:07:04.968Z,4.10
2023-04-27T10:12:21.438Z,2.72
2023-04-27T10:17:53.356Z,5.53
2023-04-27T10:20:33.176Z,5.80
2023-04-27T10:23:00.818Z,4.78
2023-04-27T10:25:38.333Z,4.95
2023-04-27T10:28:05.180Z,4.93
2023-04-27T10:30:46.046Z,7.12
2023-04-27T10:36:34.746Z,5.37
2023-04-27T10:39:01.498Z,4.82
2023-04-27T10:41:34.677Z,4.78
2023-04-27T10:44:28.791Z,2.25
2023-04-27T10:46:57.577Z,2.50
2023-04-27T10:49:24.284Z,3.67
2023-04-27T10:51:51.461Z,3.22
2023-04-27T10:54:18.799Z,5.62
2023-04-27T10:56:45.912Z,4.12
2023-04-27T10:59:12.672Z,3.58
2023-04-27T11:01:40.252Z,9.00
2023-04-27T11:04:07.220Z,4.18
2023-04-27T11:06:42.529Z,4.00
2023-04-27T11:09:10.683Z,3.33
2023-04-27T11:11:37.385Z,3.55
2023-04-27T11:14:03.991Z,7.15
2023-04-27T11:16:33.512Z,3.80
2023-04-27T11:19:08.956Z,4.12
2023-04-27T11:21:35.581Z,4.37
2023-04-27T11:24:10.105Z,4.40
2023-04-27T11:26:36.859Z,4.43
2023-04-27T11:29:09.369Z,2.65
2023-04-27T11:31:39.307Z,3.85
2023-04-27T11:34:07.893Z,2.33
2023-04-27T11:36:34.612Z,4.03
2023-04-27T11:39:01.257Z,5.03
2023-04-27T11:41:37.503Z,4.40
2023-04-27T11:44:09.142Z,1.80
2023-04-27T11:46:36.893Z,4.78
2023-04-27T11:49:04.960Z,4.32
2023-04-27T11:51:33.532Z,3.37
2023-04-27T11:54:07.765Z,5.03
2023-04-27T11:56:42.175Z,4.03
2023-04-27T11:59:23.126Z,3.75
2023-04-27T12:01:51.661Z,3.30
2023-04-27T12:04:18.829Z,8.88
2023-04-27T12:06:45.796Z,2.70
2023-04-27T12:09:12.332Z,6.40
2023-04-27T12:11:38.974Z,6.18
2023-04-27T12:14:09.075Z,3.25
2023-04-27T12:16:35.763Z,4.32
2023-04-27T12:21:51.404Z,5.50
2023-04-27T12:24:18.099Z,5.30
2023-04-27T12:26:44.674Z,3.87
2023-04-27T12:29:11.736Z,2.87
2023-04-27T12:31:38.610Z,8.82
2023-04-27T12:34:05.913Z,14.52
2023-04-27T12:37:01.042Z,13.65
2023-04-27T12:39:43.235Z,6.43
2023-04-27T12:42:09.824Z,11.13
2023-04-27T12:44:36.773Z,4.85
2023-04-27T12:47:04.233Z,15.98
2023-04-27T12:49:30.890Z,9.07
2023-04-27T12:51:58.106Z,3.72
2023-04-27T12:54:24.661Z,5.95
2023-04-27T12:56:51.772Z,4.57
2023-04-27T12:59:18.399Z,4.95
2023-04-27T13:01:45.944Z,3.80
2023-04-27T13:04:19.372Z,3.97
2023-04-27T13:06:46.991Z,3.70
2023-04-27T13:09:13.674Z,4.32
2023-04-27T13:11:40.348Z,4.87
2023-04-27T13:14:07.178Z,3.00
2023-04-27T13:16:33.910Z,4.57
2023-04-27T13:19:00.558Z,4.40
2023-04-27T13:21:28.074Z,3.75
2023-04-27T13:24:00.044Z,3.37
2023-04-27T13:26:26.993Z,4.22
2023-04-27T13:28:53.596Z,3.35
2023-04-27T13:31:20.332Z,4.62
2023-04-27T13:33:46.986Z,3.95
2023-04-27T13:36:13.971Z,3.45
2023-04-27T13:38:40.824Z,5.60
2023-04-27T13:41:08.637Z,4.18
2023-04-27T13:43:36.523Z,3.65
2023-04-27T13:46:03.430Z,4.50
2023-04-27T13:48:31.140Z,3.20
2023-04-27T13:50:58.081Z,4.30
2023-04-27T13:53:29.027Z,3.50
2023-04-27T13:55:57.343Z,4.65
2023-04-27T13:58:26.237Z,4.05
2023-04-27T14:00:53.523Z,1.98
2023-04-27T14:03:20.696Z,3.80
2023-04-27T14:05:56.429Z,4.60
2023-04-27T14:08:23.036Z,3.87
2023-04-27T14:10:49.666Z,6.55
2023-04-27T14:13:20.474Z,3.83
2023-04-27T14:15:47.208Z,2.45
2023-04-27T14:18:14.309Z,4.72
2023-04-27T14:20:42.210Z,4.03
2023-04-27T14:23:09.256Z,3.20
2023-04-27T14:25:35.852Z,4.32
2023-04-27T14:28:04.153Z,2.42
2023-04-27T14:30:34.968Z,3.03
2023-04-27T14:33:02.245Z,3.80
2023-04-27T14:35:28.926Z,4.85
2023-04-27T14:37:57.186Z,2.37
2023-04-27T14:40:23.861Z,6.30
2023-04-27T14:42:50.403Z,4.25
2023-04-27T14:45:18.855Z,4.30
2023-04-27T14:47:45.657Z,3.72
2023-04-27T14:50:12.369Z,2.53
2023-04-27T14:52:39.422Z,4.35
2023-04-27T14:55:07.588Z,5.10
2023-04-27T14:57:38.832Z,5.10
2023-04-27T15:00:10.036Z,3.67
2023-04-27T15:02:39.816Z,4.47
2023-04-27T15:05:07.199Z,3.03
2023-04-27T15:07:33.823Z,4.60
2023-04-27T15:10:00.476Z,7.40
2023-04-27T15:12:27.157Z,3.35
2023-04-27T15:14:53.968Z,2.85
2023-04-27T15:17:20.711Z,6.07
2023-04-27T15:19:47.261Z,4.25
2023-04-27T15:22:16.863Z,4.80
2023-04-27T15:24:43.464Z,3.08
2023-04-27T15:27:10.873Z,5.12
2023-04-27T15:29:37.959Z,2.47
2023-04-27T15:32:04.779Z,4.32
2023-04-27T15:34:31.833Z,3.80
2023-04-27T15:36:58.391Z,2.42
2023-04-27T15:39:25.135Z,2.85
2023-04-27T15:42:20.716Z,4.12
2023-04-27T15:44:48.792Z,4.40
2023-04-27T15:47:15.653Z,4.78
2023-04-27T15:49:49.877Z,3.97
2023-04-27T15:52:23.859Z,6.28
2023-04-27T15:55:18.329Z,3.10
2023-04-27T15:57:59.520Z,4.50
2023-04-27T16:00:26.248Z,3.90
2023-04-27T16:02:53.185Z,3.92
2023-04-27T16:05:20.155Z,4.10
2023-04-27T16:07:46.864Z,3.67
2023-04-27T16:10:13.781Z,3.42
2023-04-27T16:12:40.944Z,2.50
2023-04-27T16:15:17.754Z,3.47
2023-04-27T16:17:44.576Z,4.22
2023-04-27T16:20:11.921Z,3.30
2023-04-27T16:22:38.653Z,5.00
2023-04-27T16:25:10.918Z,4.72
2023-04-27T16:27:39.530Z,5.07
2023-04-27T16:30:07.552Z,4.53
2023-04-27T16:32:35.506Z,3.28
2023-04-27T16:35:03.131Z,4.53
2023-04-27T16:37:29.837Z,2.75
2023-04-27T16:39:59.761Z,2.75
2023-04-27T16:42:26.522Z,5.68
2023-04-27T16:44:53.363Z,3.00
2023-04-27T16:47:20.003Z,5.20
2023-04-27T16:49:46.696Z,2.85
2023-04-27T16:52:13.373Z,5.20
2023-04-27T16:54:42.472Z,5.30
2023-04-27T16:57:09.060Z,2.80
2023-04-27T16:59:35.890Z,2.75
2023-04-27T17:02:16.410Z,6.55
2023-04-27T17:04:48.225Z,6.95
2023-04-27T17:07:15.013Z,5.97
2023-04-27T17:09:41.743Z,4.62
2023-04-27T17:12:12.269Z,5.80
2023-04-27T17:14:39.170Z,6.72
2023-04-27T17:17:06.477Z,4.35
2023-04-27T17:19:33.145Z,12.23
2023-04-27T17:21:59.975Z,10.68
2023-04-27T17:24:26.600Z,17.20
2023-04-27T17:26:53.335Z,15.05
2023-04-27T17:29:19.953Z,9.25
2023-04-27T17:31:47.338Z,13.10
2023-04-27T17:34:14.137Z,12.40
2023-04-27T17:36:40.804Z,12.88
2023-04-27T17:39:09.654Z,14.07
2023-04-27T17:41:37.259Z,14.43
2023-04-27T17:44:04.028Z,9.85
2023-04-27T17:46:30.699Z,7.62
2023-04-27T17:48:57.471Z,10.40
2023-04-27T17:51:24.020Z,8.65
2023-04-27T17:53:50.620Z,9.18
2023-04-27T17:56:17.184Z,6.53
2023-04-27T17:58:43.991Z,7.70
2023-04-27T18:01:13.305Z,10.25
2023-04-27T18:03:42.104Z,11.65
2023-04-27T18:06:09.300Z,9.60
2023-04-27T18:08:35.936Z,9.75
2023-04-27T18:11:02.769Z,9.45
2023-04-27T18:13:31.789Z,9.63
2023-04-27T18:15:58.884Z,15.00
2023-04-27T18:18:26.855Z,11.35
2023-04-27T18:20:53.782Z,17.15
2023-04-27T18:23:21.005Z,12.37
2023-04-27T18:25:47.783Z,12.13
2023-04-27T18:28:17.464Z,18.25
2023-04-27T18:30:44.190Z,10.68
2023-04-27T18:33:10.946Z,10.82
2023-04-27T18:35:37.654Z,9.48
2023-04-27T18:38:04.272Z,14.68
2023-04-27T18:40:31.643Z,7.35
2023-04-27T18:42:58.211Z,8.20
2023-04-27T18:45:24.773Z,9.65
2023-04-27T18:47:51.668Z,9.52
2023-04-27T18:50:21.123Z,9.65
2023-04-27T18:52:47.690Z,10.98
2023-04-27T18:55:17.775Z,13.32
2023-04-27T18:57:45.428Z,19.58
2023-04-27T19:00:15.036Z,22.65
2023-04-27T19:02:41.697Z,22.08
2023-04-27T19:05:12.854Z,22.98
2023-04-27T19:07:40.344Z,22.87
2023-04-27T19:10:08.253Z,25.95
2023-04-27T19:12:35.260Z,25.17
2023-04-27T19:15:01.887Z,23.98
2023-04-27T19:17:28.689Z,25.00
2023-04-27T19:19:55.472Z,22.27
2023-04-27T19:22:27.079Z,22.33
2023-04-27T19:24:53.801Z,16.85
2023-04-27T19:27:20.356Z,16.92
2023-04-27T19:29:56.982Z,13.50
2023-04-27T19:32:28.355Z,13.43
2023-04-27T19:34:56.521Z,12.52
2023-04-27T19:37:27.482Z,13.52
2023-04-27T19:39:54.391Z,13.65
2023-04-27T19:42:21.045Z,14.82
2023-04-27T19:44:47.778Z,12.37
2023-04-27T19:47:14.457Z,10.75
2023-04-27T19:49:41.120Z,11.55
2023-04-27T19:52:07.764Z,8.30
2023-04-27T19:54:36.120Z,10.57
2023-04-27T19:57:03.914Z,11.60
2023-04-27T19:59:30.496Z,12.05
2023-04-27T20:01:57.296Z,12.75
2023-04-27T20:04:24.167Z,11.95
2023-04-27T20:06:51.126Z,10.93
2023-04-27T20:11:54.850Z,18.75
2023-04-27T20:14:21.448Z,53.87
2023-04-27T20:16:48.084Z,77.40
2023-04-27T20:19:17.842Z,39.28
2023-04-27T20:21:45.436Z,27.52
2023-04-27T20:24:31.097Z,18.33
2023-04-27T20:27:28.851Z,16.00
2023-04-27T20:30:00.901Z,11.30
2023-04-27T20:32:27.443Z,12.55
2023-04-27T20:34:54.021Z,15.25
2023-04-27T20:37:21.278Z,14.15
2023-04-27T20:39:47.905Z,10.88
2023-04-27T20:42:14.510Z,14.95
2023-04-27T20:44:41.094Z,12.85
2023-04-27T20:47:07.698Z,17.65
2023-04-27T20:49:35.627Z,14.57
2023-04-27T20:52:03.183Z,16.60
2023-04-27T20:54:32.750Z,14.85
2023-04-27T20:57:02.101Z,13.93
2023-04-27T20:59:34.933Z,13.35
2023-04-27T21:02:26.330Z,13.50
2023-04-27T21:05:08.241Z,14.07
2023-04-27T21:07:35.110Z,12.07
2023-04-27T21:10:06.091Z,11.30
2023-04-27T21:12:36.341Z,14.90
2023-04-27T21:15:03.358Z,10.57
2023-04-27T21:17:30.035Z,13.93
2023-04-27T21:19:58.103Z,12.20
2023-04-27T21:22:24.719Z,11.12
2023-04-27T21:24:51.234Z,10.32
2023-04-27T21:27:17.811Z,11.40
2023-04-27T21:29:44.353Z,9.70
2023-04-27T21:32:11.121Z,10.15
2023-04-27T21:34:37.658Z,10.95
2023-04-27T21:37:04.199Z,11.25
2023-04-27T21:39:31.065Z,11.60
2023-04-27T21:41:57.610Z,12.30
2023-04-27T21:44:24.336Z,13.90
2023-04-27T21:46:51.354Z,11.10
2023-04-27T21:49:18.133Z,10.60
2023-04-27T21:51:44.784Z,10.70
2023-04-27T21:54:11.394Z,10.10
2023-04-27T21:56:38.581Z,8.73
2023-04-27T21:59:05.355Z,9.55
2023-04-27T22:01:32.104Z,8.77
2023-04-27T22:04:05.122Z,9.48
2023-04-27T22:09:03.824Z,8.60
2023-04-27T22:11:31.450Z,11.52
2023-04-27T22:14:03.470Z,13.50
2023-04-27T22:16:51.935Z,16.92
2023-04-27T22:19:30.800Z,15.93
2023-04-27T22:21:57.507Z,15.35
2023-04-27T22:24:24.206Z,13.35
2023-04-27T22:26:50.927Z,16.30
2023-04-27T22:29:17.816Z,12.98
2023-04-27T22:31:44.627Z,13.18
2023-04-27T22:36:46.585Z,10.10
2023-04-27T22:39:13.216Z,9.25
2023-04-27T22:41:39.881Z,10.18
2023-04-27T22:44:18.926Z,9.18
2023-04-27T22:47:16.284Z,8.60
2023-04-27T22:49:46.832Z,8.88
2023-04-27T22:52:14.258Z,8.30
2023-04-27T22:54:40.871Z,7.47
2023-04-27T22:57:07.419Z,9.60
2023-04-27T22:59:39.497Z,9.02
2023-04-27T23:02:06.120Z,8.27
2023-04-27T23:04:33.695Z,8.55
2023-04-27T23:09:49.829Z,7.25
2023-04-27T23:12:16.404Z,8.40
2023-04-27T23:15:01.502Z,4.80
2023-04-27T23:17:46.745Z,7.15
2023-04-27T23:20:24.528Z,6.80
2023-04-27T23:22:54.529Z,5.30
2023-04-27T23:25:24.290Z,7.65
2023-04-27T23:27:52.581Z,8.07
2023-04-27T23:30:20.073Z,7.43
2023-04-27T23:32:50.573Z,9.65
2023-04-27T23:35:17.854Z,7.65
2023-04-27T23:37:44.982Z,7.12
2023-04-27T23:40:12.298Z,7.22
2023-04-27T23:42:49.135Z,7.47
2023-04-27T23:45:42.248Z,10.95
2023-04-27T23:48:27.329Z,12.35
2023-04-27T23:51:01.456Z,7.35
2023-04-27T23:53:28.301Z,8.73
2023-04-27T23:55:55.383Z,11.00
2023-04-27T23:58:23.956Z,10.40
